Time;durP1;ratioP1;P1;durP2;ratioP2;P2;SDS_P1;SDS_P2;PMS_P1;PMS_P2;Temp;Humidity;BMP_temperature;BMP_pressure;BME280_temperature;BME280_humidity;BME280_pressure;Samples;Min_cycle;Max_cycle;Signal;HPM_P1;HPM_P2
2022/04/30 00:01:58;;;;;;;10.53;7.10;;;15.30;57.10;;;;;;946598;150;27469;-73
2022/04/30 00:04:24;;;;;;;9.07;7.30;;;15.20;57.00;;;;;;946007;148;27479;-73
2022/04/30 00:06:51;;;;;;;8.17;6.77;;;15.20;57.20;;;;;;947443;151;27907;-73
2022/04/30 00:09:17;;;;;;;7.63;6.93;;;15.20;57.40;;;;;;945852;151;27941;-72
2022/04/30 00:11:44;;;;;;;8.57;7.67;;;15.10;57.20;;;;;;945209;151;27936;-72
2022/04/30 00:14:11;;;;;;;8.90;7.00;;;15.10;57.80;;;;;;946042;148;27284;-73
2022/04/30 00:16:38;;;;;;;7.70;6.90;;;15.10;57.50;;;;;;946081;150;27415;-73
2022/04/30 00:19:06;;;;;;;7.87;6.60;;;15.10;57.40;;;;;;946190;148;27326;-73
2022/04/30 00:21:30;;;;;;;7.13;6.53;;;15.00;57.50;;;;;;946425;150;27323;-73
2022/04/30 00:23:57;;;;;;;7.07;6.37;;;15.00;57.70;;;;;;946932;150;27308;-73
2022/04/30 00:26:24;;;;;;;8.23;6.83;;;14.90;57.90;;;;;;945051;150;27387;-73
2022/04/30 00:28:52;;;;;;;9.77;7.50;;;14.90;57.90;;;;;;945459;148;27369;-73
2022/04/30 00:31:17;;;;;;;8.03;7.07;;;14.90;58.20;;;;;;945534;149;27441;-73
2022/04/30 00:33:47;;;;;;;9.70;7.63;;;14.90;58.30;;;;;;947086;151;27907;-73
2022/04/30 00:36:10;;;;;;;7.00;5.93;;;14.90;58.40;;;;;;946587;150;27373;-73
2022/04/30 00:38:36;;;;;;;7.60;5.60;;;14.80;58.10;;;;;;947281;150;27291;-73
2022/04/30 00:41:03;;;;;;;8.97;6.87;;;14.80;58.30;;;;;;944286;148;27423;-73
2022/04/30 00:43:30;;;;;;;8.47;6.90;;;14.80;58.30;;;;;;946273;148;27455;-73
2022/04/30 00:45:56;;;;;;;9.90;8.10;;;14.80;58.50;;;;;;944893;151;27307;-73
2022/04/30 00:48:23;;;;;;;8.97;7.33;;;14.80;59.30;;;;;;947084;151;27368;-73
2022/04/30 00:50:49;;;;;;;8.83;7.37;;;14.70;59.10;;;;;;947319;148;27330;-73
2022/04/30 00:53:19;;;;;;;7.43;6.20;;;14.70;59.10;;;;;;945852;150;27327;-73
2022/04/30 00:55:43;;;;;;;9.43;6.13;;;14.70;59.00;;;;;;946886;150;27339;-73
2022/04/30 00:58:09;;;;;;;6.10;5.43;;;14.60;58.80;;;;;;946266;148;27444;-73
2022/04/30 01:00:40;;;;;;;9.57;6.40;;;14.60;58.80;;;;;;945335;148;27346;-73
2022/04/30 01:03:02;;;;;;;7.03;6.33;;;14.60;59.00;;;;;;945191;148;27451;-73
2022/04/30 01:05:29;;;;;;;6.87;6.20;;;14.60;58.80;;;;;;945304;147;27740;-73
2022/04/30 01:07:56;;;;;;;8.27;6.00;;;14.60;58.80;;;;;;945758;151;27348;-73
2022/04/30 01:10:22;;;;;;;9.87;6.73;;;14.60;58.90;;;;;;947411;150;27789;-73
2022/04/30 01:12:49;;;;;;;8.67;6.17;;;14.60;59.20;;;;;;945371;148;27429;-73
2022/04/30 01:15:15;;;;;;;7.17;5.53;;;14.60;58.90;;;;;;943955;151;27323;-73
2022/04/30 01:17:42;;;;;;;7.30;5.93;;;14.60;58.90;;;;;;946013;148;27331;-73
2022/04/30 01:20:09;;;;;;;7.43;5.63;;;14.60;59.00;;;;;;945788;150;27484;-73
2022/04/30 01:23:00;;;;;;;7.10;6.13;;;14.60;58.80;;;;;;945757;151;27980;-73
2022/04/30 01:25:26;;;;;;;7.27;5.50;;;14.60;58.80;;;;;;945858;150;27411;-73
2022/04/30 01:27:53;;;;;;;6.33;5.73;;;14.60;58.80;;;;;;945889;151;27303;-73
2022/04/30 01:30:19;;;;;;;7.27;5.87;;;14.60;59.00;;;;;;946922;150;27275;-73
2022/04/30 01:38:15;;;;;;;7.60;5.50;;;14.60;59.20;;;;;;946713;148;27430;-75
2022/04/30 01:40:42;;;;;;;5.93;5.40;;;14.60;59.20;;;;;;947485;151;27349;-75
2022/04/30 01:43:08;;;;;;;5.97;5.47;;;14.60;59.60;;;;;;947979;148;27401;-76
2022/04/30 01:45:35;;;;;;;7.77;5.90;;;14.60;59.60;;;;;;946936;148;27395;-76
2022/04/30 01:48:01;;;;;;;7.47;5.93;;;14.50;59.70;;;;;;945756;151;27319;-76
2022/04/30 01:50:28;;;;;;;9.03;5.80;;;14.50;59.70;;;;;;946683;150;27399;-76
2022/04/30 01:52:55;;;;;;;6.63;5.73;;;14.50;59.90;;;;;;946987;151;27327;-76
2022/04/30 01:55:21;;;;;;;8.37;5.73;;;14.40;60.00;;;;;;944128;148;27341;-76
2022/04/30 01:57:48;;;;;;;6.50;5.70;;;14.40;60.20;;;;;;946192;150;27427;-76
2022/04/30 02:00:15;;;;;;;5.50;5.00;;;14.40;60.50;;;;;;951870;147;27298;-76
2022/04/30 02:02:44;;;;;;;8.57;6.40;;;14.40;60.50;;;;;;949909;150;27330;-76
2022/04/30 02:05:12;;;;;;;6.10;5.10;;;14.30;60.70;;;;;;950215;150;28260;-76
2022/04/30 02:07:38;;;;;;;6.20;5.60;;;14.30;60.70;;;;;;950759;147;27318;-76
2022/04/30 02:10:03;;;;;;;6.40;5.50;;;14.30;61.00;;;;;;950227;149;27314;-76
2022/04/30 02:12:31;;;;;;;6.10;5.37;;;14.30;61.10;;;;;;950062;148;27307;-76
2022/04/30 02:14:57;;;;;;;7.10;5.17;;;14.30;61.20;;;;;;950811;149;27365;-76
2022/04/30 02:17:23;;;;;;;6.17;5.47;;;14.20;61.50;;;;;;951252;147;27342;-74
2022/04/30 02:22:38;;;;;;;6.33;5.57;;;14.20;61.80;;;;;;950318;147;27330;-75
2022/04/30 02:25:01;;;;;;;6.50;5.77;;;14.20;61.60;;;;;;952534;149;27298;-75
2022/04/30 02:27:28;;;;;;;7.20;5.70;;;14.20;61.90;;;;;;950412;147;27331;-75
2022/04/30 02:29:54;;;;;;;6.47;5.77;;;14.10;61.70;;;;;;950409;150;27378;-75
2022/04/30 02:32:21;;;;;;;6.90;5.83;;;14.10;62.00;;;;;;950502;148;27308;-75
2022/04/30 02:34:48;;;;;;;8.03;5.97;;;14.00;62.10;;;;;;951174;148;28564;-75
2022/04/30 02:37:14;;;;;;;6.97;5.97;;;14.00;62.20;;;;;;949946;147;27403;-75
2022/04/30 02:39:43;;;;;;;6.03;5.47;;;14.00;62.20;;;;;;950852;150;27322;-75
2022/04/30 02:42:07;;;;;;;6.73;5.80;;;14.00;62.50;;;;;;950692;150;27427;-75
2022/04/30 02:44:34;;;;;;;6.57;5.90;;;13.90;62.70;;;;;;951476;150;27312;-75
2022/04/30 02:47:00;;;;;;;8.00;6.50;;;13.80;62.70;;;;;;951562;147;27326;-75
2022/04/30 02:49:27;;;;;;;6.70;5.80;;;13.80;63.00;;;;;;951182;147;27244;-75
2022/04/30 02:51:53;;;;;;;6.50;5.73;;;13.80;63.00;;;;;;949963;148;27383;-75
2022/04/30 02:54:20;;;;;;;7.70;5.90;;;13.70;63.30;;;;;;950980;147;27330;-75
2022/04/30 02:56:47;;;;;;;6.63;5.93;;;13.70;63.60;;;;;;951037;147;27641;-75
2022/04/30 03:01:58;;;;;;;7.20;6.33;;;13.60;63.90;;;;;;946201;148;27994;-75
2022/04/30 03:04:25;;;;;;;7.17;5.90;;;13.50;64.00;;;;;;946875;148;27506;-75
2022/04/30 03:06:51;;;;;;;6.47;5.87;;;13.50;64.10;;;;;;947865;148;27362;-75
2022/04/30 03:09:18;;;;;;;8.17;5.80;;;13.50;65.30;;;;;;945788;150;27848;-75
2022/04/30 03:11:44;;;;;;;8.33;6.33;;;13.50;64.60;;;;;;944390;150;27308;-75
2022/04/30 03:14:13;;;;;;;7.40;5.43;;;13.40;64.50;;;;;;946675;148;27323;-75
2022/04/30 03:22:06;;;;;;;6.43;5.83;;;13.40;65.10;;;;;;946996;151;27482;-75
2022/04/30 03:24:33;;;;;;;6.20;5.60;;;13.30;65.30;;;;;;946453;148;27400;-75
2022/04/30 03:27:00;;;;;;;6.97;6.27;;;13.30;65.50;;;;;;946619;150;27405;-75
2022/04/30 03:29:26;;;;;;;7.63;6.00;;;13.20;65.60;;;;;;946029;150;27323;-75
2022/04/30 03:31:53;;;;;;;7.17;6.47;;;13.20;66.00;;;;;;946378;148;27647;-75
2022/04/30 03:34:19;;;;;;;7.13;6.43;;;13.20;65.90;;;;;;946486;148;27905;-75
2022/04/30 03:36:46;;;;;;;7.30;6.30;;;13.20;66.20;;;;;;946855;151;27467;-75
2022/04/30 03:39:13;;;;;;;7.10;6.30;;;13.20;66.40;;;;;;946920;150;27426;-75
2022/04/30 03:41:39;;;;;;;7.33;6.47;;;13.20;66.40;;;;;;945556;148;27358;-75
2022/04/30 03:44:07;;;;;;;8.40;6.97;;;13.20;66.50;;;;;;944314;148;27335;-75
2022/04/30 03:46:32;;;;;;;7.73;7.03;;;13.20;66.80;;;;;;944345;148;27470;-75
2022/04/30 03:49:00;;;;;;;7.90;6.40;;;13.20;67.00;;;;;;946094;151;27426;-75
2022/04/30 03:51:25;;;;;;;9.30;6.93;;;13.10;66.90;;;;;;945812;148;27275;-75
2022/04/30 03:53:55;;;;;;;7.97;7.03;;;13.10;66.70;;;;;;946423;151;27769;-75
2022/04/30 03:56:19;;;;;;;7.27;6.17;;;13.10;66.70;;;;;;945818;148;27303;-75
2022/04/30 03:58:47;;;;;;;7.73;6.83;;;13.10;66.70;;;;;;946815;148;27351;-74
2022/04/30 04:01:13;;;;;;;6.90;6.20;;;13.10;66.70;;;;;;939819;148;27388;-75
2022/04/30 04:03:38;;;;;;;8.20;7.40;;;13.10;66.80;;;;;;938117;149;27474;-75
2022/04/30 04:06:05;;;;;;;7.80;6.90;;;13.10;66.80;;;;;;938218;149;27293;-75
2022/04/30 04:08:32;;;;;;;7.77;6.97;;;13.10;66.80;;;;;;937622;149;28079;-75
2022/04/30 04:10:58;;;;;;;7.70;7.00;;;13.00;67.10;;;;;;937615;151;27339;-74
2022/04/30 04:18:55;;;;;;;7.37;6.63;;;13.00;67.40;;;;;;938637;149;27941;-74
2022/04/30 04:21:21;;;;;;;8.57;7.10;;;13.00;67.30;;;;;;937348;149;27333;-75
2022/04/30 04:26:32;;;;;;;9.87;6.97;;;12.90;67.70;;;;;;938443;149;27345;-74
2022/04/30 04:28:59;;;;;;;7.77;6.97;;;12.90;67.80;;;;;;939109;149;27433;-74
2022/04/30 04:31:25;;;;;;;7.93;7.20;;;12.90;67.90;;;;;;939336;149;27317;-74
2022/04/30 04:33:52;;;;;;;7.63;6.90;;;12.80;67.90;;;;;;938612;149;27313;-74
2022/04/30 04:36:18;;;;;;;9.30;7.13;;;12.80;68.20;;;;;;937916;149;27300;-74
2022/04/30 04:38:45;;;;;;;7.60;6.90;;;12.80;68.30;;;;;;937762;150;27371;-74
2022/04/30 04:41:12;;;;;;;7.80;6.83;;;12.80;67.60;;;;;;937383;151;27332;-74
2022/04/30 04:43:38;;;;;;;7.73;6.93;;;12.80;68.50;;;;;;937999;149;27448;-74
2022/04/30 04:46:06;;;;;;;7.07;6.40;;;12.80;68.70;;;;;;937587;149;28241;-74
2022/04/30 04:48:31;;;;;;;9.00;7.07;;;12.80;68.80;;;;;;938267;149;27312;-74
2022/04/30 04:50:58;;;;;;;9.17;7.40;;;12.80;68.90;;;;;;938390;149;27276;-74
2022/04/30 04:53:24;;;;;;;8.27;7.33;;;12.80;68.90;;;;;;939008;150;27428;-74
2022/04/30 04:55:51;;;;;;;7.83;7.03;;;12.80;68.90;;;;;;938244;149;27344;-74
2022/04/30 04:58:18;;;;;;;7.77;6.97;;;12.80;69.30;;;;;;938453;149;27309;-74
2022/04/30 05:00:44;;;;;;;7.83;6.90;;;12.80;69.30;;;;;;937457;149;27859;-74
2022/04/30 05:03:12;;;;;;;8.07;7.10;;;12.80;69.40;;;;;;937815;151;27501;-74
2022/04/30 05:05:37;;;;;;;8.30;7.50;;;12.80;69.60;;;;;;938574;149;27469;-74
2022/04/30 05:08:04;;;;;;;7.13;6.43;;;12.80;69.20;;;;;;938844;150;27334;-74
2022/04/30 05:10:31;;;;;;;7.30;6.60;;;12.80;70.00;;;;;;938681;151;27360;-74
2022/04/30 05:12:57;;;;;;;8.40;7.60;;;12.80;70.20;;;;;;939038;151;27318;-74
2022/04/30 05:15:24;;;;;;;7.83;6.77;;;12.80;70.30;;;;;;938703;151;27388;-74
2022/04/30 05:17:50;;;;;;;8.33;7.27;;;12.80;70.10;;;;;;939931;149;27327;-74
2022/04/30 05:20:17;;;;;;;8.90;7.67;;;12.80;70.10;;;;;;939491;149;27441;-74
2022/04/30 05:22:43;;;;;;;8.23;7.03;;;12.80;70.00;;;;;;939425;149;27347;-74
2022/04/30 05:25:10;;;;;;;8.67;7.80;;;12.90;70.10;;;;;;938517;151;27327;-74
2022/04/30 05:27:37;;;;;;;7.73;6.77;;;12.80;70.10;;;;;;937993;151;27309;-74
2022/04/30 05:30:03;;;;;;;8.50;7.00;;;12.80;70.10;;;;;;938615;149;27326;-74
2022/04/30 05:32:30;;;;;;;7.83;7.03;;;12.80;70.30;;;;;;938193;150;27422;-75
2022/04/30 05:34:56;;;;;;;8.23;7.43;;;12.80;70.30;;;;;;938866;150;27361;-74
2022/04/30 05:37:23;;;;;;;9.33;7.87;;;12.80;70.30;;;;;;938616;150;27313;-75
2022/04/30 05:39:50;;;;;;;7.80;7.10;;;12.80;70.40;;;;;;937821;150;27264;-74
2022/04/30 05:42:16;;;;;;;9.33;6.97;;;12.80;70.70;;;;;;937862;149;27308;-74
2022/04/30 05:44:43;;;;;;;10.40;7.47;;;12.80;70.70;;;;;;938449;150;27400;-74
2022/04/30 05:47:09;;;;;;;8.93;7.80;;;12.80;70.70;;;;;;938269;149;27336;-74
2022/04/30 05:49:36;;;;;;;9.10;7.70;;;12.80;70.90;;;;;;938372;149;27876;-74
2022/04/30 05:52:03;;;;;;;9.30;8.17;;;12.80;71.10;;;;;;938318;149;27793;-74
2022/04/30 05:54:29;;;;;;;8.10;7.30;;;12.90;71.30;;;;;;939123;151;27371;-74
2022/04/30 05:56:56;;;;;;;9.30;7.40;;;12.90;71.50;;;;;;939083;149;27389;-74
2022/04/30 05:59:22;;;;;;;9.33;8.17;;;12.90;71.60;;;;;;937792;149;27344;-74
2022/04/30 06:01:49;;;;;;;7.60;6.90;;;12.90;71.30;;;;;;940450;149;27384;-74
2022/04/30 06:04:15;;;;;;;8.30;7.50;;;13.00;72.20;;;;;;938450;150;28055;-74
2022/04/30 06:06:44;;;;;;;7.77;7.07;;;13.00;72.30;;;;;;938031;149;27317;-74
2022/04/30 06:09:09;;;;;;;8.47;7.53;;;13.10;72.90;;;;;;938368;149;27249;-74
2022/04/30 06:11:35;;;;;;;8.40;7.70;;;13.20;73.20;;;;;;937996;151;27397;-74
2022/04/30 06:14:02;;;;;;;7.80;6.77;;;13.20;73.50;;;;;;939189;149;27351;-74
2022/04/30 06:16:28;;;;;;;9.00;7.20;;;13.30;73.40;;;;;;938484;149;28437;-74
2022/04/30 06:18:55;;;;;;;7.43;6.73;;;13.40;73.70;;;;;;937731;149;27369;-74
2022/04/30 06:21:23;;;;;;;7.73;6.93;;;13.50;73.70;;;;;;937911;149;27402;-75
2022/04/30 06:23:48;;;;;;;7.77;6.50;;;13.60;73.60;;;;;;938433;149;27325;-75
2022/04/30 06:26:15;;;;;;;7.73;6.87;;;13.70;73.40;;;;;;937926;150;27352;-74
2022/04/30 06:28:41;;;;;;;7.80;7.17;;;13.90;73.20;;;;;;938337;149;27336;-74
2022/04/30 06:31:08;;;;;;;8.27;6.67;;;13.90;72.90;;;;;;938364;151;27329;-74
2022/04/30 06:33:35;;;;;;;6.80;6.20;;;14.00;72.60;;;;;;937909;151;27511;-74
2022/04/30 06:36:01;;;;;;;6.73;6.13;;;14.10;72.20;;;;;;937281;149;27381;-74
2022/04/30 06:38:28;;;;;;;7.83;6.80;;;14.10;72.00;;;;;;939349;149;27446;-74
2022/04/30 06:40:54;;;;;;;6.60;6.00;;;14.20;71.60;;;;;;938543;150;27344;-74
2022/04/30 06:43:21;;;;;;;6.90;6.07;;;14.20;71.50;;;;;;937800;149;27694;-74
2022/04/30 06:45:47;;;;;;;6.53;5.93;;;14.20;71.50;;;;;;937481;149;27314;-74
2022/04/30 06:48:14;;;;;;;7.30;6.60;;;14.10;71.40;;;;;;938146;149;27320;-74
2022/04/30 06:50:41;;;;;;;6.97;6.27;;;14.10;71.30;;;;;;938748;149;27299;-74
2022/04/30 06:58:53;;;;;;;7.03;6.20;;;14.00;71.10;;;;;;938742;149;27293;-74
2022/04/30 07:03:30;;;;;;;7.27;6.57;;;13.90;71.10;;;;;;945862;148;27363;-74
2022/04/30 07:06:02;;;;;;;6.63;6.13;;;13.90;71.30;;;;;;947154;150;27403;-74
2022/04/30 07:08:23;;;;;;;7.30;6.57;;;13.90;71.40;;;;;;945675;148;27342;-74
2022/04/30 07:10:50;;;;;;;7.40;6.70;;;13.80;71.40;;;;;;946046;148;27384;-74
2022/04/30 07:13:16;;;;;;;7.20;6.60;;;13.80;71.60;;;;;;945645;148;27284;-74
2022/04/30 07:15:43;;;;;;;7.33;6.70;;;13.80;71.90;;;;;;946424;148;27741;-74
2022/04/30 07:18:09;;;;;;;7.70;7.00;;;13.80;72.10;;;;;;945996;151;27322;-74
2022/04/30 07:20:36;;;;;;;7.40;6.80;;;13.80;72.10;;;;;;945720;148;27345;-74
2022/04/30 07:23:03;;;;;;;7.03;6.33;;;13.80;72.00;;;;;;946440;148;27712;-74
2022/04/30 07:25:29;;;;;;;6.93;6.33;;;13.80;71.60;;;;;;946856;148;27422;-74
2022/04/30 07:27:56;;;;;;;6.93;6.33;;;13.80;71.90;;;;;;945917;148;27291;-74
2022/04/30 07:30:22;;;;;;;7.43;6.57;;;13.80;71.80;;;;;;945597;148;27264;-74
2022/04/30 07:32:49;;;;;;;6.90;6.30;;;13.70;71.90;;;;;;946018;148;27442;-74
2022/04/30 07:35:16;;;;;;;7.70;7.00;;;13.70;71.90;;;;;;945667;148;27351;-75
2022/04/30 07:37:42;;;;;;;7.03;6.33;;;13.70;71.90;;;;;;944998;151;27689;-75
2022/04/30 07:40:09;;;;;;;7.50;6.43;;;13.70;71.90;;;;;;947532;151;27412;-74
2022/04/30 07:42:36;;;;;;;7.00;6.30;;;13.70;72.30;;;;;;944602;148;27873;-74
2022/04/30 07:45:02;;;;;;;7.10;6.37;;;13.70;72.30;;;;;;946922;150;27430;-74
2022/04/30 07:47:29;;;;;;;6.37;5.73;;;13.70;72.40;;;;;;946726;150;27411;-75
2022/04/30 07:49:55;;;;;;;6.47;5.87;;;13.70;72.40;;;;;;948010;150;27330;-75
2022/04/30 07:52:22;;;;;;;7.10;6.40;;;13.80;72.50;;;;;;945478;151;27781;-74
2022/04/30 07:54:48;;;;;;;6.97;6.27;;;13.80;72.70;;;;;;946999;148;27449;-75
2022/04/30 07:57:16;;;;;;;6.50;6.00;;;13.80;72.60;;;;;;944759;148;27326;-75
2022/04/30 07:59:44;;;;;;;6.43;5.80;;;13.80;72.40;;;;;;947206;148;27458;-75
2022/04/30 08:02:08;;;;;;;7.63;6.83;;;13.90;72.40;;;;;;946628;150;27451;-75
2022/04/30 08:04:35;;;;;;;7.07;6.47;;;13.90;72.50;;;;;;951656;148;28630;-75
2022/04/30 08:07:01;;;;;;;6.47;5.87;;;13.90;72.60;;;;;;952064;148;27311;-75
2022/04/30 08:09:28;;;;;;;6.07;5.57;;;14.00;72.80;;;;;;951537;147;27310;-75
2022/04/30 08:11:55;;;;;;;6.63;6.07;;;14.00;73.50;;;;;;950205;148;27301;-74
2022/04/30 08:14:21;;;;;;;7.07;6.33;;;14.00;72.50;;;;;;951188;147;27348;-75
2022/04/30 08:16:48;;;;;;;7.50;6.90;;;14.10;72.50;;;;;;951412;148;27315;-75
2022/04/30 08:19:15;;;;;;;6.47;5.97;;;14.10;72.50;;;;;;951564;148;27298;-74
2022/04/30 08:21:42;;;;;;;6.47;5.87;;;14.20;72.30;;;;;;951744;149;27399;-75
2022/04/30 08:24:07;;;;;;;6.60;5.97;;;14.20;72.30;;;;;;951936;147;27307;-75
2022/04/30 08:26:35;;;;;;;5.97;5.47;;;14.20;72.10;;;;;;950898;150;27338;-75
2022/04/30 08:29:01;;;;;;;6.60;6.03;;;14.20;72.20;;;;;;951035;148;27341;-75
2022/04/30 08:31:27;;;;;;;5.60;5.13;;;14.30;72.20;;;;;;950819;148;27383;-75
2022/04/30 08:33:54;;;;;;;5.77;5.30;;;14.30;71.90;;;;;;949553;148;27384;-75
2022/04/30 08:36:20;;;;;;;6.30;5.73;;;14.30;71.80;;;;;;951838;147;27388;-74
2022/04/30 08:38:47;;;;;;;5.93;5.43;;;14.30;71.70;;;;;;950237;147;27370;-74
2022/04/30 08:41:14;;;;;;;6.77;6.13;;;14.30;71.70;;;;;;951217;148;27354;-75
2022/04/30 08:43:40;;;;;;;6.50;6.00;;;14.30;71.70;;;;;;950219;148;28281;-75
2022/04/30 08:46:07;;;;;;;6.27;5.70;;;14.30;71.90;;;;;;950460;148;27259;-75
2022/04/30 08:48:33;;;;;;;6.37;5.77;;;14.30;71.60;;;;;;950837;147;27310;-75
2022/04/30 08:51:02;;;;;;;5.23;4.83;;;14.30;71.50;;;;;;950850;148;27291;-75
2022/04/30 08:53:27;;;;;;;4.63;4.23;;;14.30;71.60;;;;;;952067;147;27330;-74
2022/04/30 08:55:53;;;;;;;5.37;4.97;;;14.30;71.60;;;;;;949240;148;27625;-75
2022/04/30 08:58:20;;;;;;;7.67;5.37;;;14.30;71.70;;;;;;950748;147;28085;-75
2022/04/30 09:00:48;;;;;;;6.33;5.50;;;14.30;71.80;;;;;;951301;148;27248;-74
2022/04/30 09:03:15;;;;;;;6.00;5.50;;;14.30;71.80;;;;;;946101;147;27410;-75
2022/04/30 09:05:42;;;;;;;5.37;4.87;;;14.30;71.80;;;;;;937980;149;27348;-75
2022/04/30 09:08:09;;;;;;;5.73;5.17;;;14.20;71.70;;;;;;939974;149;27316;-75
2022/04/30 09:10:35;;;;;;;5.70;5.30;;;14.20;71.70;;;;;;939021;149;27396;-75
2022/04/30 09:13:08;;;;;;;5.63;5.13;;;14.20;71.90;;;;;;939762;151;27835;-75
2022/04/30 09:15:34;;;;;;;5.80;5.30;;;14.20;72.10;;;;;;937555;151;27372;-75
2022/04/30 09:18:01;;;;;;;6.27;5.63;;;14.10;72.10;;;;;;938691;151;27405;-75
2022/04/30 09:20:29;;;;;;;6.00;5.50;;;14.10;72.20;;;;;;937653;151;27297;-75
2022/04/30 09:22:54;;;;;;;5.20;4.80;;;14.10;72.40;;;;;;937388;149;27451;-74
2022/04/30 09:25:21;;;;;;;5.27;4.77;;;14.10;73.00;;;;;;938669;149;27325;-75
2022/04/30 09:27:51;;;;;;;5.40;5.00;;;14.10;72.20;;;;;;939823;149;27318;-75
2022/04/30 09:30:14;;;;;;;6.00;5.50;;;14.00;72.20;;;;;;937586;149;27688;-75
2022/04/30 09:32:40;;;;;;;5.50;5.00;;;14.00;72.50;;;;;;937290;149;27787;-75
2022/04/30 09:37:53;;;;;;;5.37;4.87;;;14.00;72.70;;;;;;938283;149;27356;-75
2022/04/30 09:40:19;;;;;;;5.10;4.70;;;14.00;72.70;;;;;;938696;149;27280;-75
2022/04/30 09:42:48;;;;;;;4.80;4.40;;;14.00;72.90;;;;;;938044;149;27312;-75
2022/04/30 09:45:14;;;;;;;4.77;4.37;;;14.00;73.20;;;;;;937588;151;27340;-75
2022/04/30 09:47:41;;;;;;;5.00;4.60;;;14.10;73.60;;;;;;928028;150;27327;-75
2022/04/30 09:55:37;;;;;;;4.87;4.47;;;14.30;73.60;;;;;;939027;151;27429;-75
2022/04/30 09:58:03;;;;;;;5.27;4.77;;;14.40;73.50;;;;;;939746;149;27378;-76
2022/04/30 10:00:33;;;;;;;5.43;5.03;;;14.50;73.50;;;;;;937963;150;27386;-75
2022/04/30 10:03:02;;;;;;;4.77;4.30;;;14.60;73.30;;;;;;939076;150;27402;-75
2022/04/30 10:05:28;;;;;;;5.13;4.63;;;14.70;73.20;;;;;;939279;151;27347;-74
2022/04/30 10:07:55;;;;;;;4.90;4.50;;;14.80;72.70;;;;;;937605;151;27852;-75
2022/04/30 10:10:22;;;;;;;5.23;4.83;;;14.90;72.60;;;;;;938124;151;27409;-75
2022/04/30 10:12:56;;;;;;;5.50;5.00;;;15.00;72.40;;;;;;940244;149;27328;-76
2022/04/30 10:15:26;;;;;;;5.57;5.00;;;15.00;72.10;;;;;;937149;149;27319;-75
2022/04/30 10:17:52;;;;;;;4.80;4.40;;;15.20;72.00;;;;;;937823;151;27352;-75
2022/04/30 10:20:29;;;;;;;4.40;4.10;;;15.20;71.80;;;;;;938287;151;27311;-75
2022/04/30 10:22:54;;;;;;;5.22;4.70;;;15.30;71.80;;;;;;937580;151;27276;-75
2022/04/30 10:25:31;;;;;;;5.43;4.90;;;15.50;71.40;;;;;;937642;149;27242;-75
2022/04/30 10:27:57;;;;;;;5.20;4.70;;;15.50;70.80;;;;;;938248;151;27333;-75
2022/04/30 10:30:24;;;;;;;4.37;4.07;;;15.60;70.50;;;;;;938109;149;27677;-75
2022/04/30 10:32:59;;;;;;;4.57;4.17;;;15.60;70.20;;;;;;936884;151;27410;-75
2022/04/30 10:35:31;;;;;;;4.60;4.10;;;15.70;70.30;;;;;;938468;149;27422;-74
2022/04/30 10:38:10;;;;;;;4.67;4.23;;;15.80;70.00;;;;;;937568;151;27452;-74
2022/04/30 10:40:40;;;;;;;5.60;4.63;;;15.80;69.60;;;;;;939600;149;27440;-75
2022/04/30 10:43:31;;;;;;;5.17;4.63;;;15.80;69.40;;;;;;939060;151;27433;-75
2022/04/30 10:45:55;;;;;;;5.00;4.13;;;15.90;69.30;;;;;;938019;151;27308;-76
2022/04/30 10:48:20;;;;;;;4.40;4.00;;;15.90;69.20;;;;;;938662;151;27288;-75
2022/04/30 10:50:47;;;;;;;4.27;3.63;;;16.00;69.40;;;;;;937803;149;27297;-75
2022/04/30 10:53:13;;;;;;;4.50;3.95;;;16.10;69.60;;;;;;936716;151;27360;-75
2022/04/30 10:55:40;;;;;;;3.83;3.52;;;16.20;69.50;;;;;;939100;149;27317;-75
2022/04/30 10:58:06;;;;;;;5.43;4.10;;;16.30;69.20;;;;;;938719;149;27344;-75
2022/04/30 11:00:33;;;;;;;4.50;4.10;;;16.40;68.90;;;;;;938140;149;27405;-75
2022/04/30 11:03:11;;;;;;;4.83;4.42;;;16.50;68.30;;;;;;939714;150;27352;-75
2022/04/30 11:05:38;;;;;;;4.27;3.90;;;16.60;67.70;;;;;;938513;149;27469;-75
2022/04/30 11:08:04;;;;;;;3.90;3.60;;;16.50;67.10;;;;;;939272;149;27340;-75
2022/04/30 11:10:31;;;;;;;6.08;4.05;;;16.50;66.90;;;;;;938733;151;27401;-75
2022/04/30 11:13:06;;;;;;;4.03;3.72;;;16.50;66.70;;;;;;939643;149;27322;-75
2022/04/30 11:15:33;;;;;;;5.00;4.00;;;16.50;66.50;;;;;;938585;149;27344;-75
2022/04/30 11:17:59;;;;;;;3.97;3.63;;;16.40;66.30;;;;;;939355;150;27344;-75
2022/04/30 11:20:26;;;;;;;4.70;4.30;;;16.40;66.30;;;;;;939485;151;27487;-75
2022/04/30 11:22:55;;;;;;;4.43;4.13;;;16.30;66.70;;;;;;938747;151;27320;-75
2022/04/30 11:25:22;;;;;;;3.83;3.50;;;16.30;66.80;;;;;;938765;151;27420;-75
2022/04/30 11:27:49;;;;;;;4.90;4.40;;;16.30;67.10;;;;;;940002;149;27281;-74
2022/04/30 11:30:15;;;;;;;6.00;4.50;;;16.30;67.50;;;;;;938844;149;27437;-75
2022/04/30 11:32:42;;;;;;;4.75;3.92;;;16.30;67.60;;;;;;939734;151;27336;-75
2022/04/30 11:35:08;;;;;;;4.43;4.03;;;16.30;67.70;;;;;;938835;151;27326;-75
2022/04/30 11:37:38;;;;;;;4.67;4.30;;;16.30;67.80;;;;;;938840;150;27242;-75
2022/04/30 11:40:04;;;;;;;5.47;4.17;;;16.30;67.80;;;;;;939177;149;27422;-75
2022/04/30 11:42:31;;;;;;;4.17;3.87;;;16.40;67.50;;;;;;937507;151;27339;-75
2022/04/30 11:44:57;;;;;;;4.23;3.93;;;16.40;68.20;;;;;;938295;151;27463;-75
2022/04/30 11:47:24;;;;;;;4.40;4.10;;;16.40;68.00;;;;;;938567;149;27385;-75
2022/04/30 11:49:51;;;;;;;4.57;4.17;;;16.50;67.80;;;;;;938387;151;27310;-75
2022/04/30 11:52:17;;;;;;;4.00;3.70;;;16.50;67.70;;;;;;937093;151;27406;-74
2022/04/30 11:54:44;;;;;;;4.60;4.20;;;16.60;67.50;;;;;;937715;151;27442;-75
2022/04/30 11:57:10;;;;;;;5.97;4.25;;;16.50;67.10;;;;;;938828;149;27440;-75
2022/04/30 11:59:40;;;;;;;4.67;3.97;;;16.60;66.90;;;;;;938311;151;27329;-75
2022/04/30 12:02:14;;;;;;;3.83;3.53;;;16.50;66.80;;;;;;938868;149;27413;-75
2022/04/30 12:04:41;;;;;;;4.30;4.00;;;16.60;66.80;;;;;;937931;150;27463;-75
2022/04/30 12:07:05;;;;;;;5.30;4.83;;;16.50;66.70;;;;;;937880;151;27378;-75
2022/04/30 12:09:32;;;;;;;4.78;3.90;;;16.60;66.80;;;;;;937159;150;27316;-75
2022/04/30 12:11:59;;;;;;;5.03;4.62;;;16.60;66.70;;;;;;938249;149;27328;-75
2022/04/30 12:14:25;;;;;;;4.30;4.00;;;16.60;67.10;;;;;;938271;151;27367;-75
2022/04/30 12:16:52;;;;;;;5.62;4.20;;;16.70;67.40;;;;;;936262;151;27304;-75
2022/04/30 12:25:03;;;;;;;5.67;4.70;;;17.10;67.50;;;;;;939748;151;27362;-75
2022/04/30 12:27:29;;;;;;;5.25;4.17;;;17.20;66.90;;;;;;934171;151;27363;-76
2022/04/30 12:30:05;;;;;;;4.25;3.85;;;17.30;66.50;;;;;;939152;151;27273;-75
2022/04/30 12:32:33;;;;;;;4.00;3.62;;;17.40;66.40;;;;;;938420;149;27289;-76
2022/04/30 12:34:58;;;;;;;4.47;4.08;;;17.50;66.40;;;;;;939362;149;27343;-76
2022/04/30 12:37:34;;;;;;;4.15;3.85;;;17.60;66.40;;;;;;938503;150;27339;-76
2022/04/30 12:40:00;;;;;;;4.37;3.98;;;17.70;65.80;;;;;;939012;151;27321;-76
2022/04/30 12:42:27;;;;;;;4.45;4.15;;;17.90;65.70;;;;;;938004;151;27388;-76
2022/04/30 12:44:54;;;;;;;5.35;4.80;;;17.90;65.30;;;;;;938013;151;27289;-76
2022/04/30 12:47:20;;;;;;;4.17;3.87;;;18.00;64.60;;;;;;937603;151;27323;-75
2022/04/30 12:49:47;;;;;;;4.58;4.17;;;18.10;64.40;;;;;;938529;151;27443;-75
2022/04/30 12:52:13;;;;;;;4.58;4.28;;;18.00;64.20;;;;;;939148;149;28374;-75
2022/04/30 12:54:40;;;;;;;7.17;5.47;;;18.00;63.90;;;;;;937404;151;27381;-75
2022/04/30 12:57:07;;;;;;;4.50;4.10;;;18.00;63.30;;;;;;936977;149;27341;-75
2022/04/30 12:59:33;;;;;;;4.50;4.10;;;18.00;63.10;;;;;;938540;149;27372;-75
2022/04/30 13:02:00;;;;;;;5.70;5.10;;;17.90;63.00;;;;;;937858;151;27448;-75
2022/04/30 13:04:26;;;;;;;4.65;4.28;;;17.80;62.80;;;;;;937752;150;27457;-76
2022/04/30 13:06:53;;;;;;;4.75;4.35;;;17.70;62.70;;;;;;938312;151;27309;-75
2022/04/30 13:14:50;;;;;;;6.58;4.33;;;17.40;62.90;;;;;;938766;149;27399;-75
2022/04/30 13:17:16;;;;;;;4.90;4.00;;;17.20;63.00;;;;;;938633;149;28125;-74
2022/04/30 13:19:42;;;;;;;4.70;4.30;;;17.10;63.20;;;;;;937926;151;27329;-75
2022/04/30 13:22:09;;;;;;;5.22;4.72;;;17.00;63.40;;;;;;938582;149;27432;-74
2022/04/30 13:24:35;;;;;;;5.03;4.62;;;16.90;63.50;;;;;;939100;149;27384;-75
2022/04/30 13:27:02;;;;;;;5.30;4.90;;;16.90;63.60;;;;;;938050;149;27401;-75
2022/04/30 13:29:28;;;;;;;5.30;4.90;;;16.80;63.60;;;;;;936028;151;27404;-75
2022/04/30 13:31:55;;;;;;;4.83;4.42;;;16.70;63.70;;;;;;937231;150;27920;-75
2022/04/30 13:34:22;;;;;;;5.43;4.83;;;16.60;63.80;;;;;;936921;151;27329;-74
2022/04/30 13:36:48;;;;;;;4.93;4.53;;;16.60;64.10;;;;;;937081;149;27344;-75
2022/04/30 13:39:15;;;;;;;4.90;4.53;;;16.50;64.40;;;;;;940004;151;27318;-75